sensor_id;sensor_type;location;lat;lon;timestamp;pressure;altitude;pressure_sealevel;temperature;humidity
54948;BME280;41113;41.882;12.530;2023-08-08T00:02:12;100916.19;;;22.01;64.61
54948;BME280;41113;41.882;12.530;2023-08-08T00:04:37;100918.69;;;21.96;65.07
54948;BME280;41113;41.882;12.530;2023-08-08T00:07:03;100922.09;;;22.05;66.39
54948;BME280;41113;41.882;12.530;2023-08-08T00:09:28;100930.47;;;21.97;65.58
54948;BME280;41113;41.882;12.530;2023-08-08T00:11:53;100930.88;;;21.94;65.94
54948;BME280;41113;41.882;12.530;2023-08-08T00:14:19;100924.13;;;21.83;67.29
54948;BME280;41113;41.882;12.530;2023-08-08T00:16:44;100931.19;;;21.71;68.54
54948;BME280;41113;41.882;12.530;2023-08-08T00:19:10;100929.91;;;21.67;68.57
54948;BME280;41113;41.882;12.530;2023-08-08T00:21:35;100935.38;;;21.67;67.64
54948;BME280;41113;41.882;12.530;2023-08-08T00:24:01;100934.22;;;21.89;66.49
54948;BME280;41113;41.882;12.530;2023-08-08T00:26:26;100948.13;;;21.94;66.21
54948;BME280;41113;41.882;12.530;2023-08-08T00:28:51;100938.84;;;21.82;66.79
54948;BME280;41113;41.882;12.530;2023-08-08T00:31:18;100935.63;;;21.72;67.06
54948;BME280;41113;41.882;12.530;2023-08-08T00:33:45;100943.28;;;21.49;68.88
54948;BME280;41113;41.882;12.530;2023-08-08T00:36:10;100951.28;;;21.50;68.33
54948;BME280;41113;41.882;12.530;2023-08-08T00:38:35;100951.28;;;21.50;69.09
54948;BME280;41113;41.882;12.530;2023-08-08T00:41:01;100944.88;;;21.36;69.21
54948;BME280;41113;41.882;12.530;2023-08-08T00:43:26;100944.47;;;21.39;69.77
54948;BME280;41113;41.882;12.530;2023-08-08T00:45:52;100945.75;;;21.43;68.46
54948;BME280;41113;41.882;12.530;2023-08-08T00:48:18;100947.81;;;21.35;70.19
54948;BME280;41113;41.882;12.530;2023-08-08T00:50:45;100948.97;;;21.47;68.48
54948;BME280;41113;41.882;12.530;2023-08-08T00:53:13;100952.44;;;21.34;70.09
54948;BME280;41113;41.882;12.530;2023-08-08T00:55:38;100948.56;;;21.22;70.33
54948;BME280;41113;41.882;12.530;2023-08-08T00:58:04;100953.16;;;21.22;69.69
54948;BME280;41113;41.882;12.530;2023-08-08T01:00:29;100940.13;;;21.17;70.06
54948;BME280;41113;41.882;12.530;2023-08-08T01:02:55;100943.41;;;21.12;70.41
54948;BME280;41113;41.882;12.530;2023-08-08T01:05:20;100953.00;;;21.02;71.73
54948;BME280;41113;41.882;12.530;2023-08-08T01:10:25;100956.28;;;20.91;72.37
54948;BME280;41113;41.882;12.530;2023-08-08T01:12:59;100957.81;;;21.00;71.43
54948;BME280;41113;41.882;12.530;2023-08-08T01:15:26;100960.94;;;20.97;72.04
54948;BME280;41113;41.882;12.530;2023-08-08T01:17:52;100960.06;;;20.90;71.89
54948;BME280;41113;41.882;12.530;2023-08-08T01:20:18;100969.28;;;20.89;72.69
54948;BME280;41113;41.882;12.530;2023-08-08T01:25:31;100976.53;;;21.03;70.71
54948;BME280;41113;41.882;12.530;2023-08-08T01:27:57;100972.41;;;21.13;70.39
54948;BME280;41113;41.882;12.530;2023-08-08T01:30:22;100974.84;;;21.02;71.14
54948;BME280;41113;41.882;12.530;2023-08-08T01:32:48;100969.69;;;20.86;71.77
54948;BME280;41113;41.882;12.530;2023-08-08T01:35:13;100980.06;;;20.75;72.63
54948;BME280;41113;41.882;12.530;2023-08-08T01:37:43;100974.34;;;20.70;72.51
54948;BME280;41113;41.882;12.530;2023-08-08T01:40:10;100975.00;;;20.72;72.02
54948;BME280;41113;41.882;12.530;2023-08-08T01:42:38;100978.13;;;20.69;71.99
54948;BME280;41113;41.882;12.530;2023-08-08T01:45:04;100964.88;;;20.66;71.96
54948;BME280;41113;41.882;12.530;2023-08-08T01:47:30;100978.38;;;20.74;71.60
54948;BME280;41113;41.882;12.530;2023-08-08T01:49:55;100977.28;;;20.90;70.81
54948;BME280;41113;41.882;12.530;2023-08-08T01:52:21;100977.88;;;21.13;70.04
54948;BME280;41113;41.882;12.530;2023-08-08T01:54:48;100991.72;;;21.12;69.74
54948;BME280;41113;41.882;12.530;2023-08-08T01:57:13;100980.06;;;20.97;70.03
54948;BME280;41113;41.882;12.530;2023-08-08T01:59:38;100984.94;;;21.01;70.11
54948;BME280;41113;41.882;12.530;2023-08-08T02:02:04;100985.13;;;21.00;69.97
54948;BME280;41113;41.882;12.530;2023-08-08T02:04:29;100992.03;;;20.96;70.40
54948;BME280;41113;41.882;12.530;2023-08-08T02:06:54;100991.34;;;20.87;70.16
54948;BME280;41113;41.882;12.530;2023-08-08T02:09:20;100990.50;;;20.87;70.06
54948;BME280;41113;41.882;12.530;2023-08-08T02:11:45;100996.31;;;21.05;69.49
54948;BME280;41113;41.882;12.530;2023-08-08T02:14:10;101002.16;;;21.02;69.44
54948;BME280;41113;41.882;12.530;2023-08-08T02:16:36;101009.81;;;21.13;69.09
54948;BME280;41113;41.882;12.530;2023-08-08T02:19:01;101007.16;;;21.20;68.88
54948;BME280;41113;41.882;12.530;2023-08-08T02:21:26;101011.38;;;21.22;69.09
54948;BME280;41113;41.882;12.530;2023-08-08T02:23:52;101008.59;;;21.16;69.17
54948;BME280;41113;41.882;12.530;2023-08-08T02:26:17;101004.69;;;21.03;69.89
54948;BME280;41113;41.882;12.530;2023-08-08T02:28:43;101006.38;;;21.04;69.28
54948;BME280;41113;41.882;12.530;2023-08-08T02:31:08;100997.94;;;20.99;69.75
54948;BME280;41113;41.882;12.530;2023-08-08T02:33:34;100990.16;;;20.96;69.72
54948;BME280;41113;41.882;12.530;2023-08-08T02:35:59;100988.22;;;20.90;69.94
54948;BME280;41113;41.882;12.530;2023-08-08T02:38:24;100982.56;;;20.92;70.01
54948;BME280;41113;41.882;12.530;2023-08-08T02:40:50;100987.41;;;20.96;69.54
54948;BME280;41113;41.882;12.530;2023-08-08T02:43:15;100984.88;;;20.95;69.80
54948;BME280;41113;41.882;12.530;2023-08-08T02:45:41;100991.59;;;20.92;69.79
54948;BME280;41113;41.882;12.530;2023-08-08T02:48:07;100997.09;;;20.99;69.28
54948;BME280;41113;41.882;12.530;2023-08-08T02:50:32;101006.84;;;21.08;68.66
54948;BME280;41113;41.882;12.530;2023-08-08T02:52:58;101003.06;;;21.09;69.09
54948;BME280;41113;41.882;12.530;2023-08-08T02:55:23;101002.41;;;21.07;68.69
54948;BME280;41113;41.882;12.530;2023-08-08T02:57:48;101003.75;;;20.90;69.19
54948;BME280;41113;41.882;12.530;2023-08-08T03:00:14;101005.56;;;20.61;70.49
54948;BME280;41113;41.882;12.530;2023-08-08T03:02:39;101013.09;;;20.59;70.69
54948;BME280;41113;41.882;12.530;2023-08-08T03:05:05;101014.78;;;20.60;70.73
54948;BME280;41113;41.882;12.530;2023-08-08T03:07:31;101006.84;;;20.65;70.20
54948;BME280;41113;41.882;12.530;2023-08-08T03:09:56;101011.13;;;20.74;69.73
54948;BME280;41113;41.882;12.530;2023-08-08T03:12:21;101004.13;;;20.65;69.29
54948;BME280;41113;41.882;12.530;2023-08-08T03:14:47;101002.56;;;20.56;69.42
54948;BME280;41113;41.882;12.530;2023-08-08T03:17:12;101005.69;;;20.53;69.28
54948;BME280;41113;41.882;12.530;2023-08-08T03:19:37;101004.00;;;20.37;69.33
54948;BME280;41113;41.882;12.530;2023-08-08T03:22:03;100993.56;;;20.41;69.18
54948;BME280;41113;41.882;12.530;2023-08-08T03:24:28;101004.47;;;20.41;69.07
54948;BME280;41113;41.882;12.530;2023-08-08T03:26:54;100995.16;;;20.35;68.82
54948;BME280;41113;41.882;12.530;2023-08-08T03:29:19;100998.63;;;20.44;68.68
54948;BME280;41113;41.882;12.530;2023-08-08T03:31:46;101000.41;;;20.37;69.03
54948;BME280;41113;41.882;12.530;2023-08-08T03:34:11;100999.78;;;20.35;68.85
54948;BME280;41113;41.882;12.530;2023-08-08T03:36:36;101007.47;;;20.46;68.51
54948;BME280;41113;41.882;12.530;2023-08-08T03:39:02;101017.66;;;20.52;68.28
54948;BME280;41113;41.882;12.530;2023-08-08T03:41:28;101016.72;;;20.66;67.82
54948;BME280;41113;41.882;12.530;2023-08-08T03:43:54;101021.84;;;20.76;67.60
54948;BME280;41113;41.882;12.530;2023-08-08T03:46:21;101023.69;;;20.69;67.71
54948;BME280;41113;41.882;12.530;2023-08-08T03:48:46;101024.06;;;20.66;67.77
54948;BME280;41113;41.882;12.530;2023-08-08T03:51:12;101016.47;;;20.61;67.77
54948;BME280;41113;41.882;12.530;2023-08-08T03:53:37;101021.94;;;20.61;67.49
54948;BME280;41113;41.882;12.530;2023-08-08T03:56:03;101026.03;;;20.50;67.80
54948;BME280;41113;41.882;12.530;2023-08-08T03:58:28;101034.00;;;20.52;67.81
54948;BME280;41113;41.882;12.530;2023-08-08T04:00:53;101021.78;;;20.48;67.93
54948;BME280;41113;41.882;12.530;2023-08-08T04:03:19;101028.56;;;20.52;67.96
54948;BME280;41113;41.882;12.530;2023-08-08T04:05:45;101031.16;;;20.60;67.64
54948;BME280;41113;41.882;12.530;2023-08-08T04:08:17;101035.97;;;20.58;67.52
54948;BME280;41113;41.882;12.530;2023-08-08T04:10:43;101035.97;;;20.58;67.30
54948;BME280;41113;41.882;12.530;2023-08-08T04:13:09;101039.75;;;20.57;67.56
54948;BME280;41113;41.882;12.530;2023-08-08T04:15:35;101039.56;;;20.44;68.11
54948;BME280;41113;41.882;12.530;2023-08-08T04:18:00;101043.03;;;20.38;68.11
54948;BME280;41113;41.882;12.530;2023-08-08T04:20:25;101044.69;;;20.68;67.15
54948;BME280;41113;41.882;12.530;2023-08-08T04:22:51;101047.56;;;20.81;66.50
54948;BME280;41113;41.882;12.530;2023-08-08T04:25:16;101053.00;;;21.03;65.42
54948;BME280;41113;41.882;12.530;2023-08-08T04:27:42;101056.00;;;21.08;65.47
54948;BME280;41113;41.882;12.530;2023-08-08T04:30:07;101055.75;;;21.24;65.03
54948;BME280;41113;41.882;12.530;2023-08-08T04:32:33;101052.13;;;21.73;63.71
54948;BME280;41113;41.882;12.530;2023-08-08T04:34:58;101054.28;;;22.73;60.37
54948;BME280;41113;41.882;12.530;2023-08-08T04:37:24;101069.41;;;23.56;57.85
54948;BME280;41113;41.882;12.530;2023-08-08T04:39:49;101063.31;;;24.45;55.36
54948;BME280;41113;41.882;12.530;2023-08-08T04:42:14;101063.97;;;24.79;53.41
54948;BME280;41113;41.882;12.530;2023-08-08T04:44:40;101061.31;;;24.97;52.32
54948;BME280;41113;41.882;12.530;2023-08-08T04:47:05;101059.94;;;25.69;52.06
54948;BME280;41113;41.882;12.530;2023-08-08T04:49:30;101055.28;;;25.63;51.80
54948;BME280;41113;41.882;12.530;2023-08-08T04:51:56;101063.00;;;25.80;51.30
54948;BME280;41113;41.882;12.530;2023-08-08T04:54:21;101061.47;;;25.84;51.13
54948;BME280;41113;41.882;12.530;2023-08-08T04:56:46;101058.41;;;25.92;50.88
54948;BME280;41113;41.882;12.530;2023-08-08T04:59:12;101065.22;;;26.92;48.66
54948;BME280;41113;41.882;12.530;2023-08-08T05:01:37;101071.00;;;28.26;45.57
54948;BME280;41113;41.882;12.530;2023-08-08T05:04:03;101073.50;;;29.41;43.15
54948;BME280;41113;41.882;12.530;2023-08-08T05:06:28;101074.53;;;29.35;42.30
54948;BME280;41113;41.882;12.530;2023-08-08T05:08:53;101076.69;;;29.17;41.64
54948;BME280;41113;41.882;12.530;2023-08-08T05:11:19;101075.72;;;29.73;41.45
54948;BME280;41113;41.882;12.530;2023-08-08T05:13:44;101085.75;;;29.79;40.66
54948;BME280;41113;41.882;12.530;2023-08-08T05:16:10;101087.44;;;28.21;38.79
54948;BME280;41113;41.882;12.530;2023-08-08T05:18:37;101093.91;;;27.33;40.64
54948;BME280;41113;41.882;12.530;2023-08-08T05:21:03;101092.34;;;28.42;41.45
54948;BME280;41113;41.882;12.530;2023-08-08T05:23:28;101093.81;;;28.73;39.69
54948;BME280;41113;41.882;12.530;2023-08-08T05:25:53;101090.47;;;28.31;40.05
54948;BME280;41113;41.882;12.530;2023-08-08T05:28:19;101097.41;;;28.22;37.93
54948;BME280;41113;41.882;12.530;2023-08-08T05:30:45;101106.38;;;27.47;39.42
54948;BME280;41113;41.882;12.530;2023-08-08T05:33:11;101104.88;;;26.91;40.80
54948;BME280;41113;41.882;12.530;2023-08-08T05:35:36;101099.13;;;27.23;40.07
54948;BME280;41113;41.882;12.530;2023-08-08T05:38:02;101094.75;;;27.45;38.13
54948;BME280;41113;41.882;12.530;2023-08-08T05:40:27;101111.25;;;28.10;38.61
54948;BME280;41113;41.882;12.530;2023-08-08T05:42:52;101107.16;;;27.89;38.79
54948;BME280;41113;41.882;12.530;2023-08-08T05:45:18;101115.06;;;27.63;37.35
54948;BME280;41113;41.882;12.530;2023-08-08T05:47:43;101117.06;;;29.01;36.77
54948;BME280;41113;41.882;12.530;2023-08-08T05:50:09;101113.56;;;28.65;35.47
54948;BME280;41113;41.882;12.530;2023-08-08T05:52:34;101125.16;;;28.39;36.84
54948;BME280;41113;41.882;12.530;2023-08-08T05:55:00;101129.66;;;28.68;37.16
54948;BME280;41113;41.882;12.530;2023-08-08T05:57:26;101131.31;;;29.88;36.39
54948;BME280;41113;41.882;12.530;2023-08-08T05:59:51;101127.34;;;30.18;36.31
54948;BME280;41113;41.882;12.530;2023-08-08T06:02:17;101138.34;;;29.00;36.85
54948;BME280;41113;41.882;12.530;2023-08-08T06:04:42;101131.09;;;29.73;36.24
54948;BME280;41113;41.882;12.530;2023-08-08T06:07:08;101134.34;;;29.53;34.83
54948;BME280;41113;41.882;12.530;2023-08-08T06:09:33;101143.41;;;29.65;36.48
54948;BME280;41113;41.882;12.530;2023-08-08T06:11:59;101141.47;;;28.52;37.52
54948;BME280;41113;41.882;12.530;2023-08-08T06:14:24;101139.50;;;27.59;39.75
54948;BME280;41113;41.882;12.530;2023-08-08T06:16:50;101136.06;;;27.64;39.42
54948;BME280;41113;41.882;12.530;2023-08-08T06:19:15;101132.84;;;27.67;39.41
54948;BME280;41113;41.882;12.530;2023-08-08T06:21:41;101124.84;;;27.35;38.08
54948;BME280;41113;41.882;12.530;2023-08-08T06:24:06;101131.69;;;27.03;38.30
54948;BME280;41113;41.882;12.530;2023-08-08T06:26:32;101134.09;;;26.62;39.29
54948;BME280;41113;41.882;12.530;2023-08-08T06:28:57;101132.81;;;26.47;39.41
54948;BME280;41113;41.882;12.530;2023-08-08T06:31:23;101135.72;;;27.30;37.85
54948;BME280;41113;41.882;12.530;2023-08-08T06:33:48;101132.03;;;28.25;37.89
54948;BME280;41113;41.882;12.530;2023-08-08T06:36:13;101139.56;;;27.94;38.71
54948;BME280;41113;41.882;12.530;2023-08-08T06:38:39;101137.66;;;28.06;37.60
54948;BME280;41113;41.882;12.530;2023-08-08T06:41:04;101135.13;;;27.70;38.76
54948;BME280;41113;41.882;12.530;2023-08-08T06:43:30;101139.22;;;27.67;39.42
54948;BME280;41113;41.882;12.530;2023-08-08T06:45:56;101133.44;;;27.92;38.95
54948;BME280;41113;41.882;12.530;2023-08-08T06:48:22;101128.63;;;28.23;38.38
54948;BME280;41113;41.882;12.530;2023-08-08T06:50:47;101141.84;;;27.74;40.08
54948;BME280;41113;41.882;12.530;2023-08-08T06:53:13;101139.50;;;26.87;42.77
54948;BME280;41113;41.882;12.530;2023-08-08T06:55:38;101135.53;;;26.28;44.62
54948;BME280;41113;41.882;12.530;2023-08-08T06:58:04;101140.41;;;26.08;44.92
54948;BME280;41113;41.882;12.530;2023-08-08T07:00:29;101151.69;;;26.00;46.00
54948;BME280;41113;41.882;12.530;2023-08-08T07:02:55;101147.91;;;25.76;45.84
54948;BME280;41113;41.882;12.530;2023-08-08T07:05:21;101147.75;;;26.32;44.53
54948;BME280;41113;41.882;12.530;2023-08-08T07:07:50;101139.34;;;26.27;44.47
54948;BME280;41113;41.882;12.530;2023-08-08T07:10:15;101151.78;;;26.55;44.73
54948;BME280;41113;41.882;12.530;2023-08-08T07:12:41;101148.00;;;26.31;45.96
54948;BME280;41113;41.882;12.530;2023-08-08T07:15:07;101155.41;;;26.30;46.37
54948;BME280;41113;41.882;12.530;2023-08-08T07:17:32;101158.88;;;25.83;46.89
54948;BME280;41113;41.882;12.530;2023-08-08T07:19:58;101160.91;;;26.37;45.63
54948;BME280;41113;41.882;12.530;2023-08-08T07:22:23;101151.31;;;26.58;45.15
54948;BME280;41113;41.882;12.530;2023-08-08T07:24:48;101150.56;;;26.51;45.13
54948;BME280;41113;41.882;12.530;2023-08-08T07:27:14;101164.66;;;26.43;44.80
54948;BME280;41113;41.882;12.530;2023-08-08T07:29:39;101157.03;;;26.20;45.30
54948;BME280;41113;41.882;12.530;2023-08-08T07:32:05;101158.78;;;26.32;44.72
54948;BME280;41113;41.882;12.530;2023-08-08T07:34:31;101153.56;;;26.06;44.88
54948;BME280;41113;41.882;12.530;2023-08-08T07:36:57;101159.84;;;26.13;44.99
54948;BME280;41113;41.882;12.530;2023-08-08T07:39:23;101160.38;;;26.47;44.23
54948;BME280;41113;41.882;12.530;2023-08-08T07:41:48;101152.44;;;26.32;44.39
54948;BME280;41113;41.882;12.530;2023-08-08T07:44:13;101149.78;;;26.80;43.24
54948;BME280;41113;41.882;12.530;2023-08-08T07:46:39;101156.13;;;26.81;43.29
54948;BME280;41113;41.882;12.530;2023-08-08T07:49:04;101146.59;;;26.95;43.43
54948;BME280;41113;41.882;12.530;2023-08-08T07:51:31;101142.63;;;27.09;43.09
54948;BME280;41113;41.882;12.530;2023-08-08T07:53:58;101148.97;;;27.10;42.67
54948;BME280;41113;41.882;12.530;2023-08-08T07:56:24;101158.38;;;26.72;43.25
54948;BME280;41113;41.882;12.530;2023-08-08T07:58:49;101154.81;;;26.83;43.08
54948;BME280;41113;41.882;12.530;2023-08-08T08:01:15;101152.69;;;26.85;43.15
54948;BME280;41113;41.882;12.530;2023-08-08T08:03:40;101157.47;;;26.42;43.99
54948;BME280;41113;41.882;12.530;2023-08-08T08:06:06;101152.41;;;26.75;43.90
54948;BME280;41113;41.882;12.530;2023-08-08T08:08:32;101147.34;;;26.72;43.65
54948;BME280;41113;41.882;12.530;2023-08-08T08:10:57;101157.25;;;26.91;43.18
54948;BME280;41113;41.882;12.530;2023-08-08T08:13:23;101154.50;;;26.91;43.37
54948;BME280;41113;41.882;12.530;2023-08-08T08:15:48;101142.31;;;27.29;42.73
54948;BME280;41113;41.882;12.530;2023-08-08T08:18:13;101143.09;;;27.59;42.61
54948;BME280;41113;41.882;12.530;2023-08-08T08:20:42;101135.50;;;27.85;42.02
54948;BME280;41113;41.882;12.530;2023-08-08T08:23:07;101137.69;;;27.53;41.73
54948;BME280;41113;41.882;12.530;2023-08-08T08:25:33;101141.44;;;27.17;43.02
54948;BME280;41113;41.882;12.530;2023-08-08T08:27:58;101140.09;;;27.08;43.57
54948;BME280;41113;41.882;12.530;2023-08-08T08:30:23;101131.47;;;27.46;42.87
54948;BME280;41113;41.882;12.530;2023-08-08T08:32:51;101136.97;;;27.57;42.68
54948;BME280;41113;41.882;12.530;2023-08-08T08:35:17;101135.72;;;27.72;42.42
54948;BME280;41113;41.882;12.530;2023-08-08T08:37:42;101128.53;;;27.82;42.22
54948;BME280;41113;41.882;12.530;2023-08-08T08:40:08;101126.84;;;27.93;42.46
54948;BME280;41113;41.882;12.530;2023-08-08T08:42:35;101127.81;;;28.10;41.83
54948;BME280;41113;41.882;12.530;2023-08-08T08:45:02;101129.25;;;28.25;41.73
54948;BME280;41113;41.882;12.530;2023-08-08T08:47:30;101126.69;;;28.23;41.88
54948;BME280;41113;41.882;12.530;2023-08-08T08:49:57;101127.34;;;28.37;41.46
54948;BME280;41113;41.882;12.530;2023-08-08T08:52:22;101128.63;;;28.23;41.76
54948;BME280;41113;41.882;12.530;2023-08-08T08:54:50;101138.59;;;28.24;41.21
54948;BME280;41113;41.882;12.530;2023-08-08T08:57:16;101129.75;;;27.98;42.12
54948;BME280;41113;41.882;12.530;2023-08-08T08:59:41;101125.91;;;27.99;42.34
54948;BME280;41113;41.882;12.530;2023-08-08T09:02:07;101131.66;;;28.33;41.82
54948;BME280;41113;41.882;12.530;2023-08-08T09:04:33;101129.91;;;28.55;41.38
54948;BME280;41113;41.882;12.530;2023-08-08T09:07:00;101130.31;;;28.47;41.54
54948;BME280;41113;41.882;12.530;2023-08-08T09:09:26;101114.78;;;28.58;41.43
54948;BME280;41113;41.882;12.530;2023-08-08T09:11:53;101133.13;;;28.75;41.18
54948;BME280;41113;41.882;12.530;2023-08-08T09:14:25;101127.09;;;28.78;39.69
54948;BME280;41113;41.882;12.530;2023-08-08T09:16:53;101139.78;;;28.51;41.32
54948;BME280;41113;41.882;12.530;2023-08-08T09:19:20;101127.78;;;28.45;41.02
54948;BME280;41113;41.882;12.530;2023-08-08T09:21:47;101131.28;;;28.29;41.70
54948;BME280;41113;41.882;12.530;2023-08-08T09:24:13;101133.78;;;28.54;41.53
54948;BME280;41113;41.882;12.530;2023-08-08T09:26:40;101133.34;;;28.86;41.01
54948;BME280;41113;41.882;12.530;2023-08-08T09:29:05;101120.41;;;29.03;40.89
54948;BME280;41113;41.882;12.530;2023-08-08T09:31:31;101135.34;;;29.02;40.98
54948;BME280;41113;41.882;12.530;2023-08-08T09:34:02;101136.84;;;29.09;40.71
54948;BME280;41113;41.882;12.530;2023-08-08T09:36:28;101136.28;;;29.24;40.67
54948;BME280;41113;41.882;12.530;2023-08-08T09:38:54;101133.56;;;29.41;40.34
54948;BME280;41113;41.882;12.530;2023-08-08T09:41:21;101127.00;;;29.30;40.59
54948;BME280;41113;41.882;12.530;2023-08-08T09:43:51;101126.63;;;29.10;39.60
54948;BME280;41113;41.882;12.530;2023-08-08T09:46:19;101130.69;;;29.36;40.37
54948;BME280;41113;41.882;12.530;2023-08-08T09:48:44;101132.00;;;29.45;39.89
54948;BME280;41113;41.882;12.530;2023-08-08T09:51:10;101136.56;;;29.39;40.04
54948;BME280;41113;41.882;12.530;2023-08-08T09:53:35;101135.84;;;29.16;40.48
54948;BME280;41113;41.882;12.530;2023-08-08T09:56:03;101128.72;;;29.03;40.34
54948;BME280;41113;41.882;12.530;2023-08-08T09:58:29;101135.50;;;29.12;40.26
54948;BME280;41113;41.882;12.530;2023-08-08T10:00:55;101127.50;;;29.27;40.43
54948;BME280;41113;41.882;12.530;2023-08-08T10:03:20;101130.19;;;29.39;39.92
54948;BME280;41113;41.882;12.530;2023-08-08T10:05:47;101123.00;;;29.55;39.74
54948;BME280;41113;41.882;12.530;2023-08-08T10:08:15;101125.28;;;29.74;39.10
54948;BME280;41113;41.882;12.530;2023-08-08T10:10:42;101118.19;;;29.62;39.32
54948;BME280;41113;41.882;12.530;2023-08-08T10:13:08;101120.25;;;29.55;38.90
54948;BME280;41113;41.882;12.530;2023-08-08T10:15:37;101125.75;;;29.38;39.20
54948;BME280;41113;41.882;12.530;2023-08-08T10:18:02;101125.13;;;29.19;39.42
54948;BME280;41113;41.882;12.530;2023-08-08T10:20:31;101120.56;;;28.96;39.46
54948;BME280;41113;41.882;12.530;2023-08-08T10:22:57;101117.88;;;28.73;39.75
54948;BME280;41113;41.882;12.530;2023-08-08T10:25:25;101120.78;;;28.66;40.00
54948;BME280;41113;41.882;12.530;2023-08-08T10:28:01;101120.69;;;28.49;38.10
54948;BME280;41113;41.882;12.530;2023-08-08T10:30:27;101122.94;;;28.64;39.53
54948;BME280;41113;41.882;12.530;2023-08-08T10:32:56;101126.13;;;28.85;37.49
54948;BME280;41113;41.882;12.530;2023-08-08T10:35:22;101120.34;;;29.15;38.83
54948;BME280;41113;41.882;12.530;2023-08-08T10:37:53;101114.19;;;29.41;38.51
54948;BME280;41113;41.882;12.530;2023-08-08T10:40:19;101118.84;;;29.69;38.00
54948;BME280;41113;41.882;12.530;2023-08-08T10:42:46;101119.66;;;29.86;37.73
54948;BME280;41113;41.882;12.530;2023-08-08T10:45:14;101113.28;;;29.86;37.46
54948;BME280;41113;41.882;12.530;2023-08-08T10:47:41;101116.38;;;29.89;36.89
54948;BME280;41113;41.882;12.530;2023-08-08T10:52:59;101118.06;;;30.07;36.28
54948;BME280;41113;41.882;12.530;2023-08-08T10:55:31;101113.44;;;30.13;36.75
54948;BME280;41113;41.882;12.530;2023-08-08T11:00:30;101110.66;;;30.13;36.27
54948;BME280;41113;41.882;12.530;2023-08-08T11:02:56;101104.88;;;29.97;36.27
54948;BME280;41113;41.882;12.530;2023-08-08T11:05:23;101107.91;;;29.96;36.32
54948;BME280;41113;41.882;12.530;2023-08-08T11:07:49;101103.53;;;30.00;36.24
54948;BME280;41113;41.882;12.530;2023-08-08T11:10:15;101109.56;;;30.14;35.48
54948;BME280;41113;41.882;12.530;2023-08-08T11:12:40;101106.84;;;30.19;35.63
54948;BME280;41113;41.882;12.530;2023-08-08T11:15:06;101106.03;;;30.18;35.46
54948;BME280;41113;41.882;12.530;2023-08-08T11:17:32;101103.50;;;30.17;35.46
54948;BME280;41113;41.882;12.530;2023-08-08T11:19:57;101109.50;;;30.09;35.64
54948;BME280;41113;41.882;12.530;2023-08-08T11:22:23;101109.06;;;30.17;35.62
54948;BME280;41113;41.882;12.530;2023-08-08T11:24:49;101102.09;;;30.14;35.94
54948;BME280;41113;41.882;12.530;2023-08-08T11:27:15;101107.25;;;30.06;36.41
54948;BME280;41113;41.882;12.530;2023-08-08T11:29:41;101100.00;;;29.88;36.82
54948;BME280;41113;41.882;12.530;2023-08-08T11:32:13;101104.22;;;29.73;37.77
54948;BME280;41113;41.882;12.530;2023-08-08T11:34:39;101101.56;;;29.62;38.05
54948;BME280;41113;41.882;12.530;2023-08-08T11:37:04;101098.88;;;29.50;38.96
54948;BME280;41113;41.882;12.530;2023-08-08T11:39:30;101108.41;;;29.42;39.11
54948;BME280;41113;41.882;12.530;2023-08-08T11:41:55;101099.44;;;29.52;39.14
54948;BME280;41113;41.882;12.530;2023-08-08T11:44:21;101100.56;;;29.68;39.23
54948;BME280;41113;41.882;12.530;2023-08-08T11:46:46;101097.50;;;29.86;39.15
54948;BME280;41113;41.882;12.530;2023-08-08T11:49:14;101103.03;;;29.86;39.07
54948;BME280;41113;41.882;12.530;2023-08-08T11:51:42;101101.06;;;29.65;39.39
54948;BME280;41113;41.882;12.530;2023-08-08T11:54:08;101101.13;;;29.53;39.53
54948;BME280;41113;41.882;12.530;2023-08-08T11:56:34;101103.47;;;29.45;39.70
54948;BME280;41113;41.882;12.530;2023-08-08T11:59:00;101100.78;;;29.50;39.59
54948;BME280;41113;41.882;12.530;2023-08-08T12:01:26;101100.38;;;29.58;39.34
54948;BME280;41113;41.882;12.530;2023-08-08T12:03:53;101102.72;;;29.66;39.52
54948;BME280;41113;41.882;12.530;2023-08-08T12:06:19;101101.88;;;29.82;39.31
54948;BME280;41113;41.882;12.530;2023-08-08T12:08:46;101100.84;;;29.88;39.43
54948;BME280;41113;41.882;12.530;2023-08-08T12:11:12;101094.91;;;29.80;39.45
54948;BME280;41113;41.882;12.530;2023-08-08T12:13:39;101099.34;;;29.81;39.67
54948;BME280;41113;41.882;12.530;2023-08-08T12:16:06;101100.69;;;29.95;39.52
54948;BME280;41113;41.882;12.530;2023-08-08T12:18:32;101100.78;;;29.83;39.52
54948;BME280;41113;41.882;12.530;2023-08-08T12:20:57;101098.63;;;29.68;39.74
54948;BME280;41113;41.882;12.530;2023-08-08T12:23:23;101094.84;;;29.74;39.80
54948;BME280;41113;41.882;12.530;2023-08-08T12:25:48;101097.44;;;29.64;40.11
54948;BME280;41113;41.882;12.530;2023-08-08T12:28:13;101096.34;;;29.49;40.49
54948;BME280;41113;41.882;12.530;2023-08-08T12:30:39;101092.31;;;29.56;40.46
54948;BME280;41113;41.882;12.530;2023-08-08T12:33:04;101090.50;;;29.62;40.14
54948;BME280;41113;41.882;12.530;2023-08-08T12:35:30;101098.88;;;29.67;40.27
54948;BME280;41113;41.882;12.530;2023-08-08T12:37:55;101081.75;;;29.70;40.08
54948;BME280;41113;41.882;12.530;2023-08-08T12:40:20;101090.56;;;29.67;40.10
54948;BME280;41113;41.882;12.530;2023-08-08T12:42:46;101088.13;;;29.70;40.22
54948;BME280;41113;41.882;12.530;2023-08-08T12:45:12;101083.94;;;29.68;40.37